Milwaukee, WI

7:24 PM CST on January 29, 2015 (GMT -0600)
Gen Mitchell International | Change Station
CLOSE
Current Station
Airport
Location: Milwaukee,
Elevation: 692 ft
Nearby Weather Stations

Elev 692 ft 42.96 °N, 87.90 °W | Updated 32 minutes ago

Overcast
Overcast
35 °F
Feels Like 25 °F
N
16
Wind Variable Wind from NNW
Gusts 22 mph

Today
High -- | Low -- °F
--% Chance of Precip.
Yesterday
High -- | Low -- °F
Precip. -- in
7:09 AM 5:00 PM
Waxing Gibbous, 78% visible
Pressure 30.18 in
Visibility 10.0 miles
Clouds Overcast 4600 ft
Windchill 25 °F
Dew Point 18 °F
Humidity 50%
Rainfall 0.00 in
Snow Depth Not available.
UV 0 out of 12
Pollen .10 out of 12
Air Quality Not available.
Flu Activity Not available.
METAR KMKE 300052Z 33014G19KT 10SM OVC046 02/M08 A3016 RMK AO2 SLP220 T00171078

More Conditions Fewer Conditions

Pressure 30.18 in
Visibility 10.0 miles
Clouds Overcast 4600 ft
Windchill 25 °F
Dew Point 18 °F
Humidity 50%
Rainfall 0.00 in
Snow Depth Not available.
UV 0 out of 12
Pollen .10 out of 12
Air Quality Not available.
Flu Activity Not available.
METAR KMKE 300052Z 33014G19KT 10SM OVC046 02/M08 A3016 RMK AO2 SLP220 T00171078

More Conditions Fewer Conditions

Nowcast | as of 7:03 PM CST on January 29, 2015

Look for a few snow flurries to move south through southern Wisconsin this evening. The scattered to isolated flurries...along a Sheboygan...Fond Du Lac to dells line...will reach the I-94 corridor from Milwaukee to Madison and west to Mineral Point around 9 PM.

×

10-Day Weather Forecast

Almanac

Astronomy

Jan. 29, 2015 Rise Set
Actual Time
Civil Twilight
Nautical Twilight
Astronomical Twilight
Moon
Length of Visible Light
Length of Day
Tomorrow will be .
, % of the Moon is Illuminated

Today's Extremes

State Highs State Lows

Community

WunderPhotos

Upload Photos

1,791,668 photos uploaded!

WunderBlogs® & News

Nearby

Air Quality

  Air Quality AQ Index Pollutant
Not available.

Snow Depth

Station Depth Elevation

Earthquake Activity

City Distance Mag. Time & Date
Minimum magnitude displayed is 2.5.

Coastal Water Temperatures

Place Temperature

Nearby Weather Stations